| time (UTC) | temp F | wind direction | speed MPH | gust MPH | rain 1hr in | rain 24hr in | rain mn in | humidity % | barometer mb |
| 20260906003556 | 79 | 0 | 3.0 | 16.0 | 0.08 | 0.08 | 0.08 | 57 | 1013.9 |
| 20260906002556 | 84 | 0 | 12.0 | 22.0 | 0.08 | 0.08 | 0.08 | 49 | 1014.5 |
| 20260906001556 | 94 | 0 | 1.0 | 8.0 | 0.00 | 0.00 | 0.00 | 36 | 1015.6 |
| 20260906000556 | 94 | 0 | 1.0 | 4.0 | 0.00 | 0.00 | 0.00 | 29 | 1014.8 |
| 20260905235516 | 94 | 0 | 2.0 | 10.0 | 0.00 | 0.00 | 0.00 | 28 | 1014.8 |
| 20260905234556 | 95 | 0 | 4.0 | 9.0 | 0.00 | 0.00 | 0.00 | 28 | 1015.0 |
| 20260905232516 | 97 | 0 | 4.0 | 12.0 | 0.00 | 0.00 | 0.00 | 27 | 1015.3 |
| 20260905231516 | 97 | 0 | 3.0 | 8.0 | 0.00 | 0.00 | 0.00 | 26 | 1015.1 |
| 20260905230516 | 95 | 0 | 3.0 | 6.0 | 0.00 | 0.00 | 0.00 | 28 | 1015.1 |
| 20260905225556 | 95 | 0 | 2.0 | 6.0 | 0.00 | 0.00 | 0.00 | 28 | 1015.0 |
| 20260905224516 | 95 | 0 | 3.0 | 10.0 | 0.00 | 0.00 | 0.00 | 27 | 1015.1 |
| 20260905223556 | 96 | 0 | 5.0 | 12.0 | 0.00 | 0.01 | 0.00 | 27 | 1015.1 |
| 20260905222516 | 94 | 0 | 2.0 | 6.0 | 0.00 | 0.09 | 0.00 | 28 | 1014.8 |
| 20260905221516 | 94 | 0 | 5.0 | 12.0 | 0.00 | 0.12 | 0.00 | 28 | 1015.0 |
| 20260905220516 | 94 | 0 | 1.0 | 6.0 | 0.00 | 0.12 | 0.00 | 29 | 1015.2 |
| 20260905215516 | 95 | 0 | 3.0 | 11.0 | 0.00 | 0.12 | 0.00 | 28 | 1015.3 |
| 20260905214516 | 96 | 0 | 4.0 | 12.0 | 0.00 | 0.12 | 0.00 | 27 | 1015.4 |
| 20260905213516 | 97 | 0 | 4.0 | 10.0 | 0.00 | 0.12 | 0.00 | 27 | 1015.8 |
| 20260905212516 | 97 | 0 | 7.0 | 11.0 | 0.00 | 0.12 | 0.00 | 27 | 1016.0 |
| 20260905211516 | 96 | 0 | 6.0 | 12.0 | 0.00 | 0.12 | 0.00 | 27 | 1016.0 |
| 20260905210636 | 98 | 0 | 7.0 | 16.0 | 0.00 | 0.12 | 0.00 | 25 | 1016.6 |
| 20260905205516 | 98 | 0 | 4.0 | 11.0 | 0.00 | 0.12 | 0.00 | 26 | 1016.5 |
| 20260905204556 | 96 | 0 | 4.0 | 15.0 | 0.00 | 0.12 | 0.00 | 28 | 1016.5 |
| 20260905203516 | 96 | 0 | 5.0 | 14.0 | 0.00 | 0.12 | 0.00 | 28 | 1016.8 |
| 20260905202636 | 95 | 0 | 4.0 | 9.0 | 0.00 | 0.12 | 0.00 | 28 | 1016.8 |
| 20260905201515 | 97 | 0 | 8.0 | 15.0 | 0.00 | 0.12 | 0.00 | 28 | 1017.1 |
| 20260905200556 | 94 | 0 | 2.0 | 9.0 | 0.00 | 0.12 | 0.00 | 31 | 1017.0 |
| 20260905195516 | 96 | 0 | 3.0 | 9.0 | 0.00 | 0.12 | 0.00 | 29 | 1017.3 |
| 20260905194516 | 96 | 0 | 6.0 | 11.0 | 0.00 | 0.12 | 0.00 | 30 | 1017.5 |
| 20260905193556 | 95 | 0 | 4.0 | 17.0 | 0.00 | 0.12 | 0.00 | 30 | 1017.6 |
| 20260905192516 | 94 | 0 | 3.0 | 14.0 | 0.00 | 0.12 | 0.00 | 31 | 1017.5 |
| 20260905191515 | 94 | 0 | 4.0 | 13.0 | 0.00 | 0.12 | 0.00 | 32 | 1017.6 |
| 20260905190555 | 94 | 0 | 3.0 | 11.0 | 0.00 | 0.12 | 0.00 | 31 | 1017.7 |
| 20260905183515 | 93 | 0 | 6.0 | 13.0 | 0.00 | 0.12 | 0.00 | 33 | 1018.3 |
| 20260905182515 | 93 | 0 | 5.0 | 10.0 | 0.00 | 0.12 | 0.00 | 34 | 1018.4 |
| 20260905181515 | 92 | 0 | 6.0 | 12.0 | 0.00 | 0.12 | 0.00 | 34 | 1018.2 |
| 20260905180515 | 91 | 0 | 4.0 | 13.0 | 0.00 | 0.12 | 0.00 | 36 | 1018.1 |
| 20260905175515 | 91 | 0 | 4.0 | 15.0 | 0.00 | 0.12 | 0.00 | 36 | 1018.2 |
| 20260905174515 | 91 | 0 | 4.0 | 10.0 | 0.00 | 0.12 | 0.00 | 37 | 1018.4 |
| 20260905173515 | 90 | 0 | 4.0 | 9.0 | 0.00 | 0.12 | 0.00 | 37 | 1018.4 |
| 20260905172635 | 89 | 0 | 4.0 | 12.0 | 0.00 | 0.12 | 0.00 | 38 | 1018.5 |
| 20260905170635 | 88 | 0 | 5.0 | 14.0 | 0.00 | 0.12 | 0.00 | 39 | 1018.7 |
| 20260905165515 | 87 | 0 | 4.0 | 10.0 | 0.00 | 0.12 | 0.00 | 40 | 1018.5 |
| 20260905164555 | 87 | 0 | 3.0 | 8.0 | 0.00 | 0.12 | 0.00 | 41 | 1018.6 |
| 20260905163515 | 86 | 0 | 3.0 | 6.0 | 0.00 | 0.12 | 0.00 | 44 | 1018.6 |
| 20260905162515 | 85 | 0 | 3.0 | 6.0 | 0.00 | 0.12 | 0.00 | 44 | 1018.6 |
| 20260905161515 | 84 | 0 | 2.0 | 8.0 | 0.00 | 0.12 | 0.00 | 46 | 1018.6 |
| 20260905160515 | 83 | 0 | 2.0 | 8.0 | 0.00 | 0.12 | 0.00 | 47 | 1018.6 |
| 20260905155515 | 83 | 0 | 3.0 | 8.0 | 0.00 | 0.12 | 0.00 | 47 | 1018.7 |
| 20260905153555 | 81 | 0 | 0.0 | 3.0 | 0.00 | 0.12 | 0.00 | 51 | 1018.6 |
| 20260905152635 | 79 | 0 | 1.0 | 3.0 | 0.00 | 0.12 | 0.00 | 52 | 1018.4 |
| 20260905151515 | 78 | 0.0 | 0.0 | 0.00 | 0.12 | 0.00 | 55 | 1018.3 | |
| 20260905150515 | 77 | 0.0 | 0.0 | 0.00 | 0.12 | 0.00 | 59 | 1018.2 | |
| 20260905145515 | 76 | 0.0 | 0.0 | 0.00 | 0.12 | 0.00 | 61 | 1018.2 | |
| 20260905144515 | 75 | 0 | 1.0 | 4.0 | 0.00 | 0.12 | 0.00 | 62 | 1018.2 |
| 20260905142555 | 73 | 0 | 2.0 | 4.0 | 0.00 | 0.12 | 0.00 | 68 | 1018.0 |
| 20260905141515 | 72 | 0 | 1.0 | 3.0 | 0.00 | 0.12 | 0.00 | 75 | 1017.9 |
| 20260905140555 | 71 | 0 | 0.0 | 2.0 | 0.00 | 0.12 | 0.00 | 78 | 1017.6 |
| 20260905135635 | 71 | 0.0 | 0.0 | 0.00 | 0.12 | 0.00 | 79 | 1017.6 | |
| 20260905134555 | 70 | 0.0 | 0.0 | 0.00 | 0.12 | 0.00 | 78 | 1017.2 | |
| 20260905132555 | 70 | 0.0 | 0.0 | 0.00 | 0.12 | 0.00 | 79 | 1017.0 | |
| 20260905131555 | 70 | 0.0 | 0.0 | 0.00 | 0.12 | 0.00 | 78 | 1017.0 | |
| 20260905130515 | 70 | 0.0 | 0.0 | 0.00 | 0.12 | 0.00 | 77 | 1016.9 | |
| 20260905125555 | 70 | 0.0 | 0.0 | 0.00 | 0.12 | 0.00 | 76 | 1016.5 | |
| 20260905124517 | 70 | 0.0 | 0.0 | 0.00 | 0.12 | 0.00 | 75 | 1016.4 | |
| 20260905123557 | 70 | 0.0 | 0.0 | 0.00 | 0.12 | 0.00 | 75 | 1016.5 | |
| 20260905122637 | 70 | 0.0 | 0.0 | 0.00 | 0.12 | 0.00 | 75 | 1016.4 | |
| 20260905121516 | 70 | 0.0 | 0.0 | 0.00 | 0.12 | 0.00 | 76 | 1016.2 | |
| 20260905120557 | 69 | 0.0 | 0.0 | 0.00 | 0.12 | 0.00 | 76 | 1016.1 | |
| 20260905115516 | 69 | 0.0 | 0.0 | 0.00 | 0.12 | 0.00 | 77 | 1015.9 | |
| 20260905114516 | 69 | 0 | 0.0 | 3.0 | 0.00 | 0.12 | 0.00 | 78 | 1016.0 |
| 20260905113517 | 69 | 0.0 | 0.0 | 0.00 | 0.12 | 0.00 | 79 | 1016.0 | |
| 20260905112516 | 69 | 0.0 | 0.0 | 0.00 | 0.12 | 0.00 | 79 | 1015.9 | |
| 20260905110556 | 69 | 0.0 | 0.0 | 0.00 | 0.12 | 0.00 | 79 | 1015.8 | |
| 20260905105516 | 69 | 0.0 | 0.0 | 0.00 | 0.12 | 0.00 | 79 | 1015.9 | |
| 20260905104556 | 69 | 0.0 | 0.0 | 0.00 | 0.12 | 0.00 | 79 | 1015.8 | |
| 20260905103516 | 69 | 0.0 | 0.0 | 0.00 | 0.12 | 0.00 | 79 | 1016.5 | |
| 20260905102556 | 69 | 0.0 | 0.0 | 0.00 | 0.12 | 0.00 | 78 | 1017.7 | |
| 20260905101636 | 69 | 0.0 | 0.0 | 0.00 | 0.12 | 0.00 | 76 | 1017.9 | |
| 20260905100516 | 70 | 0.0 | 0.0 | 0.00 | 0.12 | 0.00 | 76 | 1018.0 | |
| 20260905095516 | 70 | 0.0 | 0.0 | 0.00 | 0.12 | 0.00 | 77 | 1018.0 | |
| 20260905093556 | 70 | 0 | 0.0 | 2.0 | 0.00 | 0.12 | 0.00 | 74 | 1017.9 |
| 20260905092516 | 70 | 0.0 | 0.0 | 0.00 | 0.12 | 0.00 | 76 | 1018.3 | |
| 20260905091516 | 71 | 0.0 | 0.0 | 0.00 | 0.12 | 0.00 | 75 | 1018.3 | |
| 20260905090516 | 71 | 0.0 | 0.0 | 0.00 | 0.12 | 0.00 | 75 | 1018.6 | |
| 20260905085556 | 71 | 0.0 | 2.0 | 0.00 | 0.12 | 0.00 | 75 | 1018.8 | |
| 20260905084556 | 71 | 0 | 2.0 | 4.0 | 0.00 | 0.12 | 0.00 | 75 | 1018.7 |
| 20260905083516 | 71 | 0 | 0.0 | 2.0 | 0.00 | 0.12 | 0.00 | 76 | 1018.5 |
| 20260905082516 | 71 | 0 | 0.0 | 2.0 | 0.00 | 0.12 | 0.00 | 75 | 1018.5 |
| 20260905081516 | 71 | 0 | 0.0 | 2.0 | 0.00 | 0.12 | 0.00 | 74 | 1018.7 |
| 20260905080556 | 72 | 0.0 | 0.0 | 0.00 | 0.12 | 0.00 | 74 | 1018.6 | |
| 20260905075516 | 72 | 0 | 0.0 | 1.0 | 0.00 | 0.12 | 0.00 | 72 | 1018.3 |
| 20260905074636 | 73 | 0.0 | 0.0 | 0.00 | 0.12 | 0.00 | 73 | 1018.4 | |
| 20260905073516 | 73 | 0 | 0.0 | 1.0 | 0.00 | 0.12 | 0.00 | 70 | 1018.5 |
| 20260905072516 | 73 | 0.0 | 0.0 | 0.00 | 0.12 | 0.00 | 69 | 1018.6 | |
| 20260905070516 | 73 | 0.0 | 0.0 | 0.00 | 0.12 | 0.00 | 69 | 1018.2 | |
| 20260905065516 | 73 | 0.0 | 2.0 | 0.00 | 0.12 | 0.00 | 68 | 1018.2 | |
| 20260905064556 | 73 | 0 | 1.0 | 3.0 | 0.00 | 0.12 | 0.00 | 68 | 1018.0 |
| 20260905063636 | 73 | 0.0 | 0.0 | 0.00 | 0.12 | 0.00 | 70 | 1018.0 | |
| 20260905062516 | 73 | 0 | 0.0 | 2.0 | 0.00 | 0.12 | 0.00 | 68 | 1017.7 |
| 20260905061516 | 73 | 0 | 0.0 | 4.0 | 0.00 | 0.12 | 0.00 | 70 | 1017.8 |
| 20260905060516 | 72 | 0 | 3.0 | 6.0 | 0.00 | 0.12 | 0.00 | 70 | 1017.5 |
| 20260905055515 | 72 | 0.0 | 0.0 | 0.00 | 0.12 | 0.12 | 74 | 1017.6 | |
| 20260905054515 | 72 | 0.0 | 0.0 | 0.00 | 0.12 | 0.12 | 75 | 1017.3 | |
| 20260905053515 | 72 | 0 | 1.0 | 2.0 | 0.00 | 0.12 | 0.12 | 75 | 1017.2 |
| 20260905052515 | 73 | 0.0 | 0.0 | 0.00 | 0.12 | 0.12 | 72 | 1017.0 | |
| 20260905051515 | 73 | 0 | 0.0 | 3.0 | 0.00 | 0.12 | 0.12 | 72 | 1017.3 |
| 20260905050515 | 74 | 0.0 | 0.0 | 0.00 | 0.12 | 0.12 | 70 | 1017.2 | |
| 20260905045555 | 74 | 0.0 | 0.0 | 0.00 | 0.12 | 0.12 | 69 | 1017.1 | |
| 20260905044635 | 74 | 0.0 | 0.0 | 0.00 | 0.12 | 0.12 | 66 | 1017.1 | |
| 20260905043555 | 75 | 0.0 | 0.0 | 0.00 | 0.12 | 0.12 | 64 | 1017.1 | |
| 20260905041515 | 77 | 0.0 | 0.0 | 0.00 | 0.12 | 0.12 | 62 | 1017.2 | |
| 20260905040635 | 77 | 0.0 | 1.0 | 0.00 | 0.12 | 0.12 | 59 | 1016.9 | |
| 20260905035515 | 77 | 0 | 1.0 | 4.0 | 0.00 | 0.12 | 0.12 | 59 | 1017.0 |
| 20260905034555 | 78 | 0 | 1.0 | 4.0 | 0.00 | 0.12 | 0.12 | 59 | 1017.0 |
| 20260905033515 | 79 | 0.0 | 0.0 | 0.00 | 0.12 | 0.12 | 60 | 1017.1 | |
| 20260905031637 | 80 | 0.0 | 0.0 | 0.00 | 0.12 | 0.12 | 54 | 1016.8 | |
| 20260905030555 | 80 | 0.0 | 0.0 | 0.00 | 0.12 | 0.12 | 55 | 1016.8 | |
| 20260905025517 | 81 | 0.0 | 2.0 | 0.00 | 0.12 | 0.12 | 54 | 1016.8 | |
| 20260905024516 | 81 | 0 | 0.0 | 3.0 | 0.00 | 0.12 | 0.12 | 50 | 1016.6 |
| 20260905023517 | 81 | 0 | 1.0 | 4.0 | 0.00 | 0.12 | 0.12 | 48 | 1016.4 |
| 20260905022516 | 82 | 0 | 1.0 | 3.0 | 0.00 | 0.12 | 0.12 | 48 | 1016.3 |
| 20260905021516 | 82 | 0 | 2.0 | 6.0 | 0.00 | 0.12 | 0.12 | 47 | 1015.8 |
| 20260905015516 | 83 | 0 | 2.0 | 8.0 | 0.00 | 0.12 | 0.12 | 47 | 1015.4 |
| 20260905014556 | 83 | 0 | 3.0 | 9.0 | 0.00 | 0.12 | 0.12 | 47 | 1015.3 |
| 20260905013516 | 83 | 0 | 3.0 | 8.0 | 0.00 | 0.12 | 0.12 | 47 | 1015.3 |
| 20260905012557 | 83 | 0 | 2.0 | 6.0 | 0.00 | 0.12 | 0.12 | 47 | 1014.8 |
| 20260905011516 | 83 | 0 | 3.0 | 9.0 | 0.00 | 0.12 | 0.12 | 47 | 1014.2 |
| 20260905010516 | 83 | 0 | 3.0 | 9.0 | 0.00 | 0.12 | 0.12 | 48 | 1014.0 |
| 20260905005516 | 82 | 0 | 4.0 | 6.0 | 0.00 | 0.12 | 0.12 | 55 | 1013.6 |
| 20260905004636 | 81 | 0.0 | 0.0 | 0.00 | 0.12 | 0.12 | 65 | 1013.4 |